sensor_id;sensor_type;location;lat;lon;timestamp;P1;durP1;ratioP1;P2;durP2;ratioP2
72926;SDS011;61071;51.618;19.388;2022-09-30T00:00:00;40.60;;;19.50;;
72926;SDS011;61071;51.618;19.388;2022-09-30T00:02:27;37.80;;;18.25;;
72926;SDS011;61071;51.618;19.388;2022-09-30T00:04:53;43.70;;;18.27;;
72926;SDS011;61071;51.618;19.388;2022-09-30T00:07:18;79.07;;;26.92;;
72926;SDS011;61071;51.618;19.388;2022-09-30T00:09:44;40.92;;;17.15;;
72926;SDS011;61071;51.618;19.388;2022-09-30T00:12:12;33.30;;;15.77;;
72926;SDS011;61071;51.618;19.388;2022-09-30T00:14:37;27.55;;;15.65;;
72926;SDS011;61071;51.618;19.388;2022-09-30T00:17:03;30.58;;;15.55;;
72926;SDS011;61071;51.618;19.388;2022-09-30T00:19:29;27.55;;;16.00;;
72926;SDS011;61071;51.618;19.388;2022-09-30T00:21:54;27.42;;;15.77;;
72926;SDS011;61071;51.618;19.388;2022-09-30T00:24:20;31.15;;;17.75;;
72926;SDS011;61071;51.618;19.388;2022-09-30T00:26:46;31.33;;;16.33;;
72926;SDS011;61071;51.618;19.388;2022-09-30T00:29:11;33.05;;;18.55;;
72926;SDS011;61071;51.618;19.388;2022-09-30T00:31:37;39.08;;;18.55;;
72926;SDS011;61071;51.618;19.388;2022-09-30T00:34:03;33.22;;;18.77;;
72926;SDS011;61071;51.618;19.388;2022-09-30T00:36:33;30.83;;;17.30;;
72926;SDS011;61071;51.618;19.388;2022-09-30T00:39:23;40.25;;;19.35;;
72926;SDS011;61071;51.618;19.388;2022-09-30T00:41:52;33.33;;;18.30;;
72926;SDS011;61071;51.618;19.388;2022-09-30T00:44:42;23.95;;;15.18;;
72926;SDS011;61071;51.618;19.388;2022-09-30T00:47:31;28.38;;;15.02;;
72926;SDS011;61071;51.618;19.388;2022-09-30T00:53:24;24.20;;;14.65;;
72926;SDS011;61071;51.618;19.388;2022-09-30T00:56:05;25.63;;;15.50;;
72926;SDS011;61071;51.618;19.388;2022-09-30T00:58:37;29.55;;;16.42;;
72926;SDS011;61071;51.618;19.388;2022-09-30T01:01:09;27.63;;;16.42;;
72926;SDS011;61071;51.618;19.388;2022-09-30T01:03:37;28.27;;;15.57;;
72926;SDS011;61071;51.618;19.388;2022-09-30T01:06:09;35.47;;;19.65;;
72926;SDS011;61071;51.618;19.388;2022-09-30T01:08:36;37.70;;;21.45;;
72926;SDS011;61071;51.618;19.388;2022-09-30T01:11:04;39.33;;;21.50;;
72926;SDS011;61071;51.618;19.388;2022-09-30T01:13:30;31.85;;;17.77;;
72926;SDS011;61071;51.618;19.388;2022-09-30T01:19:04;31.58;;;16.65;;
72926;SDS011;61071;51.618;19.388;2022-09-30T01:24:39;46.40;;;24.27;;
72926;SDS011;61071;51.618;19.388;2022-09-30T01:39:28;38.83;;;21.40;;
72926;SDS011;61071;51.618;19.388;2022-09-30T01:42:07;43.25;;;22.85;;
72926;SDS011;61071;51.618;19.388;2022-09-30T01:44:47;50.03;;;24.35;;
72926;SDS011;61071;51.618;19.388;2022-09-30T01:56:01;54.45;;;26.85;;
72926;SDS011;61071;51.618;19.388;2022-09-30T01:58:51;56.22;;;26.13;;
72926;SDS011;61071;51.618;19.388;2022-09-30T02:01:29;51.45;;;26.75;;
72926;SDS011;61071;51.618;19.388;2022-09-30T02:04:11;40.60;;;22.55;;
72926;SDS011;61071;51.618;19.388;2022-09-30T02:06:46;42.00;;;22.40;;
72926;SDS011;61071;51.618;19.388;2022-09-30T02:09:25;52.10;;;25.30;;
72926;SDS011;61071;51.618;19.388;2022-09-30T02:12:00;44.38;;;21.48;;
72926;SDS011;61071;51.618;19.388;2022-09-30T02:15:18;48.78;;;24.27;;
72926;SDS011;61071;51.618;19.388;2022-09-30T02:17:31;39.33;;;21.08;;
72926;SDS011;61071;51.618;19.388;2022-09-30T02:20:21;37.65;;;20.35;;
72926;SDS011;61071;51.618;19.388;2022-09-30T02:22:56;37.30;;;19.83;;
72926;SDS011;61071;51.618;19.388;2022-09-30T02:25:36;40.35;;;21.25;;
72926;SDS011;61071;51.618;19.388;2022-09-30T02:28:11;47.85;;;23.48;;
72926;SDS011;61071;51.618;19.388;2022-09-30T02:30:48;36.40;;;20.10;;
72926;SDS011;61071;51.618;19.388;2022-09-30T02:35:57;31.85;;;18.15;;
72926;SDS011;61071;51.618;19.388;2022-09-30T02:38:43;40.42;;;19.17;;
72926;SDS011;61071;51.618;19.388;2022-09-30T02:41:16;34.10;;;19.52;;
72926;SDS011;61071;51.618;19.388;2022-09-30T02:43:48;36.17;;;19.65;;
72926;SDS011;61071;51.618;19.388;2022-09-30T02:46:28;43.78;;;22.05;;
72926;SDS011;61071;51.618;19.388;2022-09-30T02:49:26;32.75;;;19.63;;
72926;SDS011;61071;51.618;19.388;2022-09-30T02:52:23;31.08;;;18.58;;
72926;SDS011;61071;51.618;19.388;2022-09-30T02:55:13;36.55;;;20.25;;
72926;SDS011;61071;51.618;19.388;2022-09-30T03:00:38;42.63;;;20.23;;
72926;SDS011;61071;51.618;19.388;2022-09-30T03:03:06;42.20;;;21.00;;
72926;SDS011;61071;51.618;19.388;2022-09-30T03:05:42;40.80;;;19.75;;
72926;SDS011;61071;51.618;19.388;2022-09-30T03:08:09;38.28;;;18.67;;
72926;SDS011;61071;51.618;19.388;2022-09-30T03:10:36;36.70;;;18.30;;
72926;SDS011;61071;51.618;19.388;2022-09-30T03:16:13;39.30;;;18.40;;
72926;SDS011;61071;51.618;19.388;2022-09-30T03:25:00;37.40;;;19.77;;
72926;SDS011;61071;51.618;19.388;2022-09-30T03:30:45;45.20;;;22.52;;
72926;SDS011;61071;51.618;19.388;2022-09-30T03:33:59;40.20;;;20.90;;
72926;SDS011;61071;51.618;19.388;2022-09-30T03:36:58;40.65;;;22.17;;
72926;SDS011;61071;51.618;19.388;2022-09-30T03:40:06;40.88;;;20.98;;
72926;SDS011;61071;51.618;19.388;2022-09-30T03:45:27;35.33;;;18.65;;
72926;SDS011;61071;51.618;19.388;2022-09-30T03:48:04;36.00;;;20.30;;
72926;SDS011;61071;51.618;19.388;2022-09-30T03:50:34;29.92;;;17.20;;
72926;SDS011;61071;51.618;19.388;2022-09-30T03:53:02;30.00;;;19.13;;
72926;SDS011;61071;51.618;19.388;2022-09-30T03:55:46;26.00;;;15.77;;
72926;SDS011;61071;51.618;19.388;2022-09-30T03:58:16;30.83;;;15.68;;
72926;SDS011;61071;51.618;19.388;2022-09-30T04:00:47;29.13;;;16.35;;
72926;SDS011;61071;51.618;19.388;2022-09-30T04:03:17;36.60;;;16.00;;
72926;SDS011;61071;51.618;19.388;2022-09-30T04:05:45;29.83;;;16.73;;
72926;SDS011;61071;51.618;19.388;2022-09-30T04:08:11;27.20;;;16.58;;
72926;SDS011;61071;51.618;19.388;2022-09-30T04:10:38;31.55;;;17.60;;
72926;SDS011;61071;51.618;19.388;2022-09-30T04:13:06;35.38;;;19.30;;
72926;SDS011;61071;51.618;19.388;2022-09-30T04:15:33;28.48;;;16.48;;
72926;SDS011;61071;51.618;19.388;2022-09-30T04:18:00;27.17;;;15.95;;
72926;SDS011;61071;51.618;19.388;2022-09-30T04:20:27;28.58;;;17.38;;
72926;SDS011;61071;51.618;19.388;2022-09-30T04:22:58;32.28;;;16.83;;
72926;SDS011;61071;51.618;19.388;2022-09-30T04:25:25;31.92;;;16.92;;
72926;SDS011;61071;51.618;19.388;2022-09-30T04:27:53;36.00;;;20.25;;
72926;SDS011;61071;51.618;19.388;2022-09-30T04:30:19;35.85;;;19.45;;
72926;SDS011;61071;51.618;19.388;2022-09-30T04:32:45;33.45;;;18.45;;
72926;SDS011;61071;51.618;19.388;2022-09-30T04:35:11;43.78;;;19.77;;
72926;SDS011;61071;51.618;19.388;2022-09-30T04:37:44;39.80;;;20.90;;
72926;SDS011;61071;51.618;19.388;2022-09-30T04:40:12;52.40;;;26.92;;
72926;SDS011;61071;51.618;19.388;2022-09-30T04:42:39;52.10;;;27.40;;
72926;SDS011;61071;51.618;19.388;2022-09-30T04:45:07;59.58;;;29.98;;
72926;SDS011;61071;51.618;19.388;2022-09-30T04:47:38;64.60;;;31.07;;
72926;SDS011;61071;51.618;19.388;2022-09-30T04:50:08;65.05;;;31.60;;
72926;SDS011;61071;51.618;19.388;2022-09-30T04:52:34;59.75;;;29.58;;
72926;SDS011;61071;51.618;19.388;2022-09-30T04:55:00;52.40;;;27.98;;
72926;SDS011;61071;51.618;19.388;2022-09-30T04:57:25;45.08;;;22.92;;
72926;SDS011;61071;51.618;19.388;2022-09-30T04:59:51;49.75;;;25.77;;
72926;SDS011;61071;51.618;19.388;2022-09-30T05:02:17;42.28;;;21.08;;
72926;SDS011;61071;51.618;19.388;2022-09-30T05:04:43;42.20;;;21.83;;
72926;SDS011;61071;51.618;19.388;2022-09-30T05:07:09;33.08;;;17.83;;
72926;SDS011;61071;51.618;19.388;2022-09-30T05:09:35;34.75;;;18.17;;
72926;SDS011;61071;51.618;19.388;2022-09-30T05:12:01;29.67;;;16.83;;
72926;SDS011;61071;51.618;19.388;2022-09-30T05:14:27;33.35;;;17.45;;
72926;SDS011;61071;51.618;19.388;2022-09-30T05:16:54;30.92;;;16.98;;
72926;SDS011;61071;51.618;19.388;2022-09-30T05:19:20;24.95;;;15.27;;
72926;SDS011;61071;51.618;19.388;2022-09-30T05:21:46;30.23;;;16.10;;
72926;SDS011;61071;51.618;19.388;2022-09-30T05:24:12;37.65;;;21.38;;
72926;SDS011;61071;51.618;19.388;2022-09-30T05:26:38;34.80;;;21.85;;
72926;SDS011;61071;51.618;19.388;2022-09-30T05:29:08;49.30;;;25.67;;
72926;SDS011;61071;51.618;19.388;2022-09-30T05:31:34;45.05;;;25.90;;
72926;SDS011;61071;51.618;19.388;2022-09-30T05:34:00;61.15;;;31.10;;
72926;SDS011;61071;51.618;19.388;2022-09-30T05:36:26;59.75;;;29.73;;
72926;SDS011;61071;51.618;19.388;2022-09-30T05:38:52;67.38;;;33.25;;
72926;SDS011;61071;51.618;19.388;2022-09-30T05:41:20;62.45;;;33.85;;
72926;SDS011;61071;51.618;19.388;2022-09-30T05:43:47;61.92;;;29.27;;
72926;SDS011;61071;51.618;19.388;2022-09-30T05:46:14;51.38;;;26.65;;
72926;SDS011;61071;51.618;19.388;2022-09-30T05:48:41;64.47;;;32.25;;
72926;SDS011;61071;51.618;19.388;2022-09-30T05:51:08;38.55;;;23.42;;
72926;SDS011;61071;51.618;19.388;2022-09-30T05:53:34;52.78;;;25.70;;
72926;SDS011;61071;51.618;19.388;2022-09-30T05:56:03;43.58;;;25.58;;
72926;SDS011;61071;51.618;19.388;2022-09-30T05:58:33;46.35;;;25.98;;
72926;SDS011;61071;51.618;19.388;2022-09-30T06:01:04;36.80;;;21.77;;
72926;SDS011;61071;51.618;19.388;2022-09-30T06:03:36;43.15;;;25.38;;
72926;SDS011;61071;51.618;19.388;2022-09-30T06:06:03;52.42;;;27.95;;
72926;SDS011;61071;51.618;19.388;2022-09-30T06:08:30;64.50;;;35.75;;
72926;SDS011;61071;51.618;19.388;2022-09-30T06:10:56;67.65;;;35.33;;
72926;SDS011;61071;51.618;19.388;2022-09-30T06:13:25;41.03;;;25.35;;
72926;SDS011;61071;51.618;19.388;2022-09-30T06:15:56;53.70;;;31.00;;
72926;SDS011;61071;51.618;19.388;2022-09-30T06:20:52;47.72;;;28.52;;
72926;SDS011;61071;51.618;19.388;2022-09-30T06:23:20;64.20;;;33.35;;
72926;SDS011;61071;51.618;19.388;2022-09-30T06:25:50;58.60;;;30.13;;
72926;SDS011;61071;51.618;19.388;2022-09-30T06:28:20;44.60;;;27.45;;
72926;SDS011;61071;51.618;19.388;2022-09-30T06:30:47;41.03;;;24.67;;
72926;SDS011;61071;51.618;19.388;2022-09-30T06:33:13;41.95;;;25.25;;
72926;SDS011;61071;51.618;19.388;2022-09-30T06:35:40;46.67;;;25.90;;
72926;SDS011;61071;51.618;19.388;2022-09-30T06:38:07;43.28;;;26.25;;
72926;SDS011;61071;51.618;19.388;2022-09-30T06:40:34;40.47;;;24.67;;
72926;SDS011;61071;51.618;19.388;2022-09-30T06:43:01;32.75;;;22.85;;
72926;SDS011;61071;51.618;19.388;2022-09-30T06:45:27;42.28;;;23.02;;
72926;SDS011;61071;51.618;19.388;2022-09-30T06:47:57;36.22;;;23.30;;
72926;SDS011;61071;51.618;19.388;2022-09-30T06:50:24;39.30;;;22.15;;
72926;SDS011;61071;51.618;19.388;2022-09-30T06:52:51;30.42;;;21.42;;
72926;SDS011;61071;51.618;19.388;2022-09-30T06:55:22;35.30;;;21.77;;
72926;SDS011;61071;51.618;19.388;2022-09-30T06:57:48;37.15;;;23.63;;
72926;SDS011;61071;51.618;19.388;2022-09-30T07:00:14;39.38;;;22.67;;
72926;SDS011;61071;51.618;19.388;2022-09-30T07:02:41;37.72;;;22.17;;
72926;SDS011;61071;51.618;19.388;2022-09-30T07:05:07;34.88;;;22.80;;
72926;SDS011;61071;51.618;19.388;2022-09-30T07:07:34;35.33;;;23.55;;
72926;SDS011;61071;51.618;19.388;2022-09-30T07:10:01;35.35;;;22.15;;
72926;SDS011;61071;51.618;19.388;2022-09-30T07:12:28;35.83;;;22.38;;
72926;SDS011;61071;51.618;19.388;2022-09-30T07:14:54;43.05;;;24.85;;
72926;SDS011;61071;51.618;19.388;2022-09-30T07:17:21;35.17;;;22.83;;
72926;SDS011;61071;51.618;19.388;2022-09-30T07:19:46;36.05;;;23.15;;
72926;SDS011;61071;51.618;19.388;2022-09-30T07:22:12;34.30;;;20.98;;
72926;SDS011;61071;51.618;19.388;2022-09-30T07:24:59;34.85;;;21.60;;
72926;SDS011;61071;51.618;19.388;2022-09-30T07:27:30;30.30;;;20.00;;
72926;SDS011;61071;51.618;19.388;2022-09-30T07:29:57;29.88;;;20.80;;
72926;SDS011;61071;51.618;19.388;2022-09-30T07:32:24;28.50;;;19.60;;
72926;SDS011;61071;51.618;19.388;2022-09-30T07:34:50;30.45;;;20.33;;
72926;SDS011;61071;51.618;19.388;2022-09-30T07:37:16;31.75;;;18.88;;
72926;SDS011;61071;51.618;19.388;2022-09-30T07:39:44;30.65;;;19.95;;
72926;SDS011;61071;51.618;19.388;2022-09-30T07:42:16;30.23;;;17.67;;
72926;SDS011;61071;51.618;19.388;2022-09-30T07:44:46;31.10;;;17.48;;
72926;SDS011;61071;51.618;19.388;2022-09-30T07:47:15;24.88;;;16.73;;
72926;SDS011;61071;51.618;19.388;2022-09-30T07:49:42;22.02;;;13.85;;
72926;SDS011;61071;51.618;19.388;2022-09-30T07:52:09;23.15;;;14.98;;
72926;SDS011;61071;51.618;19.388;2022-09-30T07:54:37;22.35;;;13.68;;
72926;SDS011;61071;51.618;19.388;2022-09-30T07:57:05;21.98;;;15.18;;
72926;SDS011;61071;51.618;19.388;2022-09-30T07:59:32;22.23;;;15.00;;
72926;SDS011;61071;51.618;19.388;2022-09-30T08:02:03;21.98;;;15.65;;
72926;SDS011;61071;51.618;19.388;2022-09-30T08:04:31;22.73;;;14.32;;
72926;SDS011;61071;51.618;19.388;2022-09-30T08:06:58;21.58;;;15.20;;
72926;SDS011;61071;51.618;19.388;2022-09-30T08:09:27;24.33;;;14.13;;
72926;SDS011;61071;51.618;19.388;2022-09-30T08:11:54;25.90;;;15.43;;
72926;SDS011;61071;51.618;19.388;2022-09-30T08:14:21;32.15;;;14.35;;
72926;SDS011;61071;51.618;19.388;2022-09-30T08:16:49;25.10;;;15.55;;
72926;SDS011;61071;51.618;19.388;2022-09-30T08:19:21;22.50;;;15.75;;
72926;SDS011;61071;51.618;19.388;2022-09-30T08:21:49;26.40;;;16.30;;
72926;SDS011;61071;51.618;19.388;2022-09-30T08:24:19;23.73;;;15.40;;
72926;SDS011;61071;51.618;19.388;2022-09-30T08:26:46;22.70;;;14.85;;
72926;SDS011;61071;51.618;19.388;2022-09-30T08:29:12;24.88;;;15.30;;
72926;SDS011;61071;51.618;19.388;2022-09-30T08:31:39;21.23;;;14.60;;
72926;SDS011;61071;51.618;19.388;2022-09-30T08:34:05;26.52;;;16.15;;
72926;SDS011;61071;51.618;19.388;2022-09-30T08:36:31;22.40;;;15.95;;
72926;SDS011;61071;51.618;19.388;2022-09-30T08:38:57;24.80;;;16.13;;
72926;SDS011;61071;51.618;19.388;2022-09-30T08:50:08;20.38;;;15.10;;
72926;SDS011;61071;51.618;19.388;2022-09-30T08:52:47;25.23;;;15.02;;
72926;SDS011;61071;51.618;19.388;2022-09-30T08:55:25;25.00;;;15.98;;
72926;SDS011;61071;51.618;19.388;2022-09-30T09:00:53;34.70;;;17.45;;
72926;SDS011;61071;51.618;19.388;2022-09-30T09:03:28;24.85;;;15.50;;
72926;SDS011;61071;51.618;19.388;2022-09-30T09:18:15;23.90;;;15.43;;
72926;SDS011;61071;51.618;19.388;2022-09-30T09:20:32;23.35;;;14.52;;
72926;SDS011;61071;51.618;19.388;2022-09-30T09:23:09;21.20;;;15.30;;
72926;SDS011;61071;51.618;19.388;2022-09-30T09:25:38;24.42;;;15.95;;
72926;SDS011;61071;51.618;19.388;2022-09-30T09:28:21;22.60;;;15.35;;
72926;SDS011;61071;51.618;19.388;2022-09-30T09:30:51;19.23;;;13.07;;
72926;SDS011;61071;51.618;19.388;2022-09-30T09:33:44;25.40;;;14.18;;
72926;SDS011;61071;51.618;19.388;2022-09-30T09:40:04;15.30;;;11.55;;
72926;SDS011;61071;51.618;19.388;2022-09-30T09:51:41;17.73;;;11.90;;
72926;SDS011;61071;51.618;19.388;2022-09-30T09:54:30;14.85;;;10.65;;
72926;SDS011;61071;51.618;19.388;2022-09-30T09:57:08;15.77;;;11.98;;
72926;SDS011;61071;51.618;19.388;2022-09-30T10:02:23;17.38;;;11.07;;
72926;SDS011;61071;51.618;19.388;2022-09-30T10:04:56;14.57;;;10.68;;
72926;SDS011;61071;51.618;19.388;2022-09-30T10:07:28;15.23;;;10.82;;
72926;SDS011;61071;51.618;19.388;2022-09-30T10:10:05;13.43;;;9.45;;
72926;SDS011;61071;51.618;19.388;2022-09-30T10:12:41;14.40;;;9.43;;
72926;SDS011;61071;51.618;19.388;2022-09-30T10:15:25;14.07;;;10.38;;
72926;SDS011;61071;51.618;19.388;2022-09-30T10:17:52;16.08;;;10.07;;
72926;SDS011;61071;51.618;19.388;2022-09-30T10:23:01;17.17;;;9.38;;
72926;SDS011;61071;51.618;19.388;2022-09-30T10:25:46;13.77;;;10.02;;
72926;SDS011;61071;51.618;19.388;2022-09-30T10:31:27;14.60;;;9.77;;
72926;SDS011;61071;51.618;19.388;2022-09-30T10:34:19;15.65;;;10.05;;
72926;SDS011;61071;51.618;19.388;2022-09-30T10:37:00;13.67;;;10.03;;
72926;SDS011;61071;51.618;19.388;2022-09-30T10:44:54;16.35;;;10.20;;
72926;SDS011;61071;51.618;19.388;2022-09-30T10:47:43;17.13;;;10.35;;
72926;SDS011;61071;51.618;19.388;2022-09-30T10:50:14;15.80;;;10.40;;
72926;SDS011;61071;51.618;19.388;2022-09-30T10:53:10;14.80;;;10.33;;
72926;SDS011;61071;51.618;19.388;2022-09-30T10:55:44;14.55;;;9.70;;
72926;SDS011;61071;51.618;19.388;2022-09-30T11:01:16;16.25;;;8.90;;
72926;SDS011;61071;51.618;19.388;2022-09-30T11:06:32;14.35;;;9.57;;
72926;SDS011;61071;51.618;19.388;2022-09-30T11:09:38;12.02;;;9.00;;
72926;SDS011;61071;51.618;19.388;2022-09-30T11:12:37;14.95;;;8.25;;
72926;SDS011;61071;51.618;19.388;2022-09-30T11:17:55;13.10;;;7.85;;
72926;SDS011;61071;51.618;19.388;2022-09-30T11:20:27;13.98;;;8.13;;
72926;SDS011;61071;51.618;19.388;2022-09-30T11:23:03;10.90;;;7.75;;
72926;SDS011;61071;51.618;19.388;2022-09-30T11:29:04;11.88;;;7.78;;
72926;SDS011;61071;51.618;19.388;2022-09-30T11:31:48;12.43;;;8.60;;
72926;SDS011;61071;51.618;19.388;2022-09-30T11:42:52;12.85;;;9.27;;
72926;SDS011;61071;51.618;19.388;2022-09-30T11:48:23;14.05;;;9.07;;
72926;SDS011;61071;51.618;19.388;2022-09-30T11:51:21;12.90;;;8.88;;
72926;SDS011;61071;51.618;19.388;2022-09-30T12:00:12;13.32;;;9.13;;
72926;SDS011;61071;51.618;19.388;2022-09-30T12:02:43;18.42;;;9.98;;
72926;SDS011;61071;51.618;19.388;2022-09-30T12:08:23;14.57;;;9.40;;
72926;SDS011;61071;51.618;19.388;2022-09-30T12:11:18;13.10;;;9.15;;
72926;SDS011;61071;51.618;19.388;2022-09-30T12:13:58;10.80;;;8.82;;
72926;SDS011;61071;51.618;19.388;2022-09-30T12:16:36;14.48;;;9.52;;
72926;SDS011;61071;51.618;19.388;2022-09-30T12:19:14;13.48;;;9.38;;
72926;SDS011;61071;51.618;19.388;2022-09-30T12:22:04;14.80;;;9.10;;
72926;SDS011;61071;51.618;19.388;2022-09-30T12:24:40;14.13;;;9.32;;
72926;SDS011;61071;51.618;19.388;2022-09-30T12:27:15;13.02;;;9.38;;
72926;SDS011;61071;51.618;19.388;2022-09-30T12:30:00;14.32;;;9.77;;
72926;SDS011;61071;51.618;19.388;2022-09-30T12:47:21;13.57;;;9.10;;
72926;SDS011;61071;51.618;19.388;2022-09-30T12:50:10;12.68;;;9.38;;
72926;SDS011;61071;51.618;19.388;2022-09-30T12:52:41;16.85;;;10.23;;
72926;SDS011;61071;51.618;19.388;2022-09-30T12:57:56;14.63;;;10.32;;
72926;SDS011;61071;51.618;19.388;2022-09-30T13:00:28;13.18;;;9.80;;
72926;SDS011;61071;51.618;19.388;2022-09-30T13:03:04;17.42;;;9.30;;
72926;SDS011;61071;51.618;19.388;2022-09-30T13:13:19;11.98;;;8.00;;
72926;SDS011;61071;51.618;19.388;2022-09-30T13:15:55;10.25;;;7.32;;
72926;SDS011;61071;51.618;19.388;2022-09-30T13:26:04;13.63;;;7.30;;
72926;SDS011;61071;51.618;19.388;2022-09-30T13:29:37;12.70;;;8.07;;
72926;SDS011;61071;51.618;19.388;2022-09-30T13:34:21;9.88;;;7.50;;
72926;SDS011;61071;51.618;19.388;2022-09-30T13:37:03;15.25;;;8.40;;
72926;SDS011;61071;51.618;19.388;2022-09-30T13:45:14;10.40;;;7.65;;
72926;SDS011;61071;51.618;19.388;2022-09-30T13:47:58;11.07;;;7.43;;
72926;SDS011;61071;51.618;19.388;2022-09-30T13:50:56;10.23;;;7.05;;
72926;SDS011;61071;51.618;19.388;2022-09-30T13:53:40;8.95;;;7.50;;
72926;SDS011;61071;51.618;19.388;2022-09-30T13:56:23;10.07;;;7.20;;
72926;SDS011;61071;51.618;19.388;2022-09-30T14:15:45;14.65;;;8.27;;
72926;SDS011;61071;51.618;19.388;2022-09-30T14:24:00;12.98;;;8.45;;
72926;SDS011;61071;51.618;19.388;2022-09-30T14:32:18;12.55;;;8.52;;
72926;SDS011;61071;51.618;19.388;2022-09-30T14:38:33;13.45;;;9.35;;
72926;SDS011;61071;51.618;19.388;2022-09-30T14:41:05;11.10;;;8.55;;
72926;SDS011;61071;51.618;19.388;2022-09-30T14:43:41;12.70;;;9.00;;
72926;SDS011;61071;51.618;19.388;2022-09-30T14:49:06;13.35;;;8.63;;
72926;SDS011;61071;51.618;19.388;2022-09-30T14:51:42;11.55;;;9.07;;
72926;SDS011;61071;51.618;19.388;2022-09-30T14:54:24;12.45;;;8.45;;
72926;SDS011;61071;51.618;19.388;2022-09-30T14:56:55;14.13;;;8.68;;
72926;SDS011;61071;51.618;19.388;2022-09-30T15:01:57;12.20;;;8.75;;
72926;SDS011;61071;51.618;19.388;2022-09-30T15:04:36;10.90;;;8.23;;
72926;SDS011;61071;51.618;19.388;2022-09-30T15:07:08;11.75;;;8.45;;
72926;SDS011;61071;51.618;19.388;2022-09-30T15:09:40;12.40;;;8.45;;
72926;SDS011;61071;51.618;19.388;2022-09-30T15:14:51;12.48;;;9.60;;
72926;SDS011;61071;51.618;19.388;2022-09-30T15:17:25;12.95;;;9.38;;
72926;SDS011;61071;51.618;19.388;2022-09-30T15:19:55;14.77;;;9.17;;
72926;SDS011;61071;51.618;19.388;2022-09-30T15:22:23;10.57;;;8.43;;
72926;SDS011;61071;51.618;19.388;2022-09-30T15:24:53;11.43;;;8.85;;
72926;SDS011;61071;51.618;19.388;2022-09-30T15:27:28;11.45;;;8.38;;
72926;SDS011;61071;51.618;19.388;2022-09-30T15:30:00;12.93;;;8.32;;
72926;SDS011;61071;51.618;19.388;2022-09-30T15:32:45;13.07;;;8.32;;
72926;SDS011;61071;51.618;19.388;2022-09-30T15:35:16;10.60;;;8.52;;
72926;SDS011;61071;51.618;19.388;2022-09-30T15:37:45;12.50;;;8.70;;
72926;SDS011;61071;51.618;19.388;2022-09-30T15:40:15;12.43;;;8.85;;
72926;SDS011;61071;51.618;19.388;2022-09-30T15:43:06;9.93;;;7.65;;
72926;SDS011;61071;51.618;19.388;2022-09-30T15:50:50;10.80;;;8.35;;
72926;SDS011;61071;51.618;19.388;2022-09-30T15:56:14;11.50;;;8.75;;
72926;SDS011;61071;51.618;19.388;2022-09-30T15:58:56;15.75;;;8.68;;
72926;SDS011;61071;51.618;19.388;2022-09-30T16:09:19;11.77;;;8.70;;
72926;SDS011;61071;51.618;19.388;2022-09-30T16:19:58;11.80;;;8.63;;
72926;SDS011;61071;51.618;19.388;2022-09-30T16:22:47;9.40;;;7.47;;
72926;SDS011;61071;51.618;19.388;2022-09-30T16:25:24;12.35;;;7.30;;
72926;SDS011;61071;51.618;19.388;2022-09-30T16:28:08;8.98;;;7.53;;
72926;SDS011;61071;51.618;19.388;2022-09-30T16:30:54;9.20;;;6.95;;
72926;SDS011;61071;51.618;19.388;2022-09-30T16:33:20;11.23;;;7.13;;
72926;SDS011;61071;51.618;19.388;2022-09-30T16:35:46;8.30;;;6.88;;
72926;SDS011;61071;51.618;19.388;2022-09-30T16:38:13;7.47;;;5.90;;
72926;SDS011;61071;51.618;19.388;2022-09-30T16:40:41;7.10;;;5.82;;
72926;SDS011;61071;51.618;19.388;2022-09-30T16:43:07;14.55;;;6.47;;
72926;SDS011;61071;51.618;19.388;2022-09-30T16:45:38;7.88;;;6.20;;
72926;SDS011;61071;51.618;19.388;2022-09-30T16:48:15;8.35;;;6.70;;
72926;SDS011;61071;51.618;19.388;2022-09-30T16:50:44;7.60;;;6.13;;
72926;SDS011;61071;51.618;19.388;2022-09-30T16:53:17;11.27;;;5.75;;
72926;SDS011;61071;51.618;19.388;2022-09-30T16:55:43;8.88;;;6.57;;
72926;SDS011;61071;51.618;19.388;2022-09-30T16:58:09;8.20;;;6.63;;
72926;SDS011;61071;51.618;19.388;2022-09-30T17:00:39;11.70;;;6.38;;
72926;SDS011;61071;51.618;19.388;2022-09-30T17:03:11;10.68;;;6.78;;
72926;SDS011;61071;51.618;19.388;2022-09-30T17:05:39;8.35;;;6.03;;
72926;SDS011;61071;51.618;19.388;2022-09-30T17:08:14;7.88;;;5.75;;
72926;SDS011;61071;51.618;19.388;2022-09-30T17:10:41;8.00;;;5.85;;
72926;SDS011;61071;51.618;19.388;2022-09-30T17:13:10;10.50;;;5.90;;
72926;SDS011;61071;51.618;19.388;2022-09-30T17:15:40;11.90;;;6.57;;
72926;SDS011;61071;51.618;19.388;2022-09-30T17:18:07;8.70;;;5.97;;
72926;SDS011;61071;51.618;19.388;2022-09-30T17:20:36;8.63;;;6.40;;
72926;SDS011;61071;51.618;19.388;2022-09-30T17:23:06;9.05;;;6.32;;
72926;SDS011;61071;51.618;19.388;2022-09-30T17:25:32;7.55;;;5.93;;
72926;SDS011;61071;51.618;19.388;2022-09-30T17:27:58;9.98;;;6.60;;
72926;SDS011;61071;51.618;19.388;2022-09-30T17:30:24;11.50;;;7.00;;
72926;SDS011;61071;51.618;19.388;2022-09-30T17:32:51;10.35;;;7.13;;
72926;SDS011;61071;51.618;19.388;2022-09-30T17:35:17;10.55;;;8.43;;
72926;SDS011;61071;51.618;19.388;2022-09-30T17:37:42;9.82;;;7.93;;
72926;SDS011;61071;51.618;19.388;2022-09-30T17:40:09;9.35;;;7.22;;
72926;SDS011;61071;51.618;19.388;2022-09-30T17:42:53;9.18;;;7.00;;
72926;SDS011;61071;51.618;19.388;2022-09-30T17:45:32;10.50;;;7.30;;
72926;SDS011;61071;51.618;19.388;2022-09-30T17:47:59;17.88;;;7.65;;
72926;SDS011;61071;51.618;19.388;2022-09-30T17:50:25;9.52;;;7.63;;
72926;SDS011;61071;51.618;19.388;2022-09-30T17:52:51;10.80;;;7.32;;
72926;SDS011;61071;51.618;19.388;2022-09-30T17:55:18;26.38;;;12.05;;
72926;SDS011;61071;51.618;19.388;2022-09-30T17:57:44;23.92;;;12.82;;
72926;SDS011;61071;51.618;19.388;2022-09-30T18:00:10;20.77;;;11.70;;
72926;SDS011;61071;51.618;19.388;2022-09-30T18:02:37;17.15;;;11.38;;
72926;SDS011;61071;51.618;19.388;2022-09-30T18:05:04;23.48;;;16.13;;
72926;SDS011;61071;51.618;19.388;2022-09-30T18:07:30;11.68;;;9.10;;
72926;SDS011;61071;51.618;19.388;2022-09-30T18:09:56;10.30;;;6.97;;
72926;SDS011;61071;51.618;19.388;2022-09-30T18:12:22;14.48;;;6.57;;
72926;SDS011;61071;51.618;19.388;2022-09-30T18:14:48;8.93;;;6.15;;
72926;SDS011;61071;51.618;19.388;2022-09-30T18:17:14;10.35;;;6.72;;
72926;SDS011;61071;51.618;19.388;2022-09-30T18:19:40;11.18;;;7.03;;
72926;SDS011;61071;51.618;19.388;2022-09-30T18:22:06;12.07;;;7.15;;
72926;SDS011;61071;51.618;19.388;2022-09-30T18:24:32;16.73;;;8.85;;
72926;SDS011;61071;51.618;19.388;2022-09-30T18:27:16;386.33;;;103.40;;
72926;SDS011;61071;51.618;19.388;2022-09-30T18:29:45;201.98;;;51.17;;
72926;SDS011;61071;51.618;19.388;2022-09-30T18:32:11;301.75;;;70.35;;
72926;SDS011;61071;51.618;19.388;2022-09-30T18:34:37;275.40;;;63.65;;
72926;SDS011;61071;51.618;19.388;2022-09-30T18:37:03;99.20;;;26.88;;
72926;SDS011;61071;51.618;19.388;2022-09-30T18:39:35;103.30;;;36.58;;
72926;SDS011;61071;51.618;19.388;2022-09-30T18:42:03;96.45;;;31.27;;
72926;SDS011;61071;51.618;19.388;2022-09-30T18:44:30;123.38;;;39.55;;